createdAt,value
2023-02-25T00:02:27.718Z,11.29
2023-02-25T00:05:00.329Z,11.28
2023-02-25T00:07:29.004Z,11.22
2023-02-25T00:10:07.272Z,11.22
2023-02-25T00:12:38.641Z,11.21
2023-02-25T00:15:10.080Z,11.19
2023-02-25T00:17:45.270Z,11.17
2023-02-25T00:20:20.952Z,11.11
2023-02-25T00:22:54.339Z,11.11
2023-02-25T00:25:40.346Z,11.07
2023-02-25T00:28:10.014Z,11.06
2023-02-25T00:30:53.818Z,11.06
2023-02-25T00:33:26.560Z,11.00
2023-02-25T00:35:59.910Z,11.01
2023-02-25T00:38:29.896Z,10.94
2023-02-25T00:41:00.999Z,10.96
2023-02-25T00:43:43.248Z,10.94
2023-02-25T00:46:16.304Z,10.89
2023-02-25T00:48:50.628Z,10.91
2023-02-25T00:51:22.386Z,10.85
2023-02-25T00:53:51.966Z,10.85
2023-02-25T00:56:22.001Z,10.79
2023-02-25T00:58:51.840Z,10.80
2023-02-25T01:01:23.928Z,10.80
2023-02-25T01:03:52.829Z,10.74
2023-02-25T01:06:21.965Z,10.78
2023-02-25T01:08:51.635Z,10.76
2023-02-25T01:11:29.791Z,10.67
2023-02-25T01:14:09.032Z,10.69
2023-02-25T01:16:43.755Z,10.67
2023-02-25T01:19:17.398Z,10.49
2023-02-25T01:21:46.476Z,10.63
2023-02-25T01:24:18.707Z,10.54
2023-02-25T01:26:52.016Z,10.51
2023-02-25T01:29:23.734Z,10.50
2023-02-25T01:31:55.074Z,10.37
2023-02-25T01:34:24.757Z,10.45
2023-02-25T01:37:06.621Z,10.45
2023-02-25T01:39:38.742Z,10.33
2023-02-25T01:42:20.721Z,10.47
2023-02-25T01:45:26.625Z,10.47
2023-02-25T01:47:58.167Z,10.43
2023-02-25T01:50:36.161Z,10.23
2023-02-25T01:53:04.786Z,10.34
2023-02-25T01:55:34.673Z,10.34
2023-02-25T01:58:12.469Z,10.25
2023-02-25T02:00:58.096Z,10.23
2023-02-25T02:03:27.248Z,10.13
2023-02-25T02:06:03.461Z,9.99
2023-02-25T02:08:33.925Z,9.91
2023-02-25T02:11:06.847Z,9.85
2023-02-25T02:13:42.428Z,9.73
2023-02-25T02:16:25.881Z,9.62
2023-02-25T02:19:03.513Z,9.54
2023-02-25T02:21:56.920Z,9.52
2023-02-25T02:24:49.830Z,9.48
2023-02-25T02:27:22.227Z,9.49
2023-02-25T02:30:05.148Z,9.54
2023-02-25T02:32:39.393Z,9.60
2023-02-25T02:35:17.061Z,9.64
2023-02-25T02:37:48.905Z,9.64
2023-02-25T02:40:24.079Z,9.73
2023-02-25T02:43:00.487Z,9.76
2023-02-25T02:45:42.494Z,9.75
2023-02-25T02:48:15.194Z,9.73
2023-02-25T02:50:45.814Z,9.75
2023-02-25T02:53:20.584Z,9.74
2023-02-25T02:55:50.409Z,9.64
2023-02-25T02:58:19.573Z,9.75
2023-02-25T03:00:49.821Z,9.67
2023-02-25T03:03:23.240Z,9.77
2023-02-25T03:05:52.210Z,9.77
2023-02-25T03:08:22.913Z,9.62
2023-02-25T03:10:51.885Z,9.79
2023-02-25T03:13:27.029Z,9.78
2023-02-25T03:16:16.903Z,9.80
2023-02-25T03:18:51.554Z,9.80
2023-02-25T03:21:27.962Z,9.79
2023-02-25T03:23:58.252Z,9.76
2023-02-25T03:26:30.181Z,9.70
2023-02-25T03:29:02.951Z,9.71
2023-02-25T03:31:35.126Z,9.63
2023-02-25T03:34:08.407Z,9.64
2023-02-25T03:36:40.687Z,9.58
2023-02-25T03:39:12.893Z,9.61
2023-02-25T03:41:48.267Z,9.60
2023-02-25T03:44:26.257Z,9.56
2023-02-25T03:46:55.274Z,9.57
2023-02-25T03:49:31.856Z,9.54
2023-02-25T03:52:01.929Z,9.40
2023-02-25T03:54:31.617Z,9.50
2023-02-25T03:57:04.879Z,9.39
2023-02-25T03:59:38.240Z,9.42
2023-02-25T04:02:20.616Z,9.46
2023-02-25T04:04:51.672Z,9.41
2023-02-25T04:07:21.553Z,9.38
2023-02-25T04:09:51.581Z,9.37
2023-02-25T04:12:23.481Z,9.39
2023-02-25T04:14:58.965Z,9.37
2023-02-25T04:17:28.841Z,9.11
2023-02-25T04:19:59.380Z,9.30
2023-02-25T04:22:27.475Z,9.28
2023-02-25T04:24:55.478Z,9.31
2023-02-25T04:27:24.603Z,9.24
2023-02-25T04:29:53.798Z,9.27
2023-02-25T04:32:26.193Z,9.25
2023-02-25T04:34:58.047Z,9.22
2023-02-25T04:37:28.195Z,9.19
2023-02-25T04:39:59.771Z,9.19
2023-02-25T04:42:30.580Z,9.19
2023-02-25T04:45:00.956Z,9.18
2023-02-25T04:47:29.456Z,9.19
2023-02-25T04:50:01.870Z,9.17
2023-02-25T04:52:41.564Z,9.20
2023-02-25T04:55:13.732Z,9.21
2023-02-25T04:57:49.782Z,9.21
2023-02-25T05:00:24.318Z,9.22
2023-02-25T05:02:55.826Z,9.19
2023-02-25T05:05:25.701Z,9.16
2023-02-25T05:07:57.902Z,9.21
2023-02-25T05:10:28.227Z,9.21
2023-02-25T05:12:58.088Z,9.20
2023-02-25T05:15:29.164Z,9.18
2023-02-25T05:17:57.989Z,9.19
2023-02-25T05:20:26.859Z,9.18
2023-02-25T05:22:57.712Z,9.13
2023-02-25T05:25:27.213Z,9.15
2023-02-25T05:28:00.713Z,9.14
2023-02-25T05:30:29.282Z,9.12
2023-02-25T05:32:57.486Z,9.12
2023-02-25T05:35:29.002Z,8.95
2023-02-25T05:38:01.905Z,9.07
2023-02-25T05:40:32.063Z,9.10
2023-02-25T05:43:04.457Z,9.11
2023-02-25T05:45:38.464Z,8.95
2023-02-25T05:48:14.254Z,9.03
2023-02-25T05:50:43.930Z,8.98
2023-02-25T05:53:19.669Z,9.00
2023-02-25T05:55:48.195Z,9.01
2023-02-25T05:58:16.625Z,8.98
2023-02-25T06:00:46.690Z,9.01
2023-02-25T06:03:15.881Z,9.00
2023-02-25T06:05:45.688Z,9.00
2023-02-25T06:08:24.426Z,8.98
2023-02-25T06:10:53.184Z,8.98
2023-02-25T06:13:33.903Z,8.96
2023-02-25T06:16:31.046Z,8.96
2023-02-25T06:22:49.556Z,8.98
2023-02-25T06:25:21.112Z,8.83
2023-02-25T06:27:50.113Z,8.90
2023-02-25T06:30:21.443Z,8.90
2023-02-25T06:32:51.149Z,8.88
2023-02-25T06:35:23.498Z,8.84
2023-02-25T06:37:51.786Z,8.85
2023-02-25T06:41:07.151Z,8.83
2023-02-25T06:52:46.900Z,8.67
2023-02-25T06:56:17.313Z,8.74
2023-02-25T06:58:52.523Z,8.69
2023-02-25T07:01:21.616Z,8.71
2023-02-25T07:03:54.285Z,8.70
2023-02-25T07:06:30.410Z,8.67
2023-02-25T07:09:07.717Z,8.65
2023-02-25T07:11:43.063Z,8.61
2023-02-25T07:14:20.725Z,8.59
2023-02-25T07:16:52.186Z,8.55
2023-02-25T07:19:24.808Z,8.55
2023-02-25T07:21:54.451Z,8.47
2023-02-25T07:24:27.784Z,8.49
2023-02-25T07:26:58.891Z,8.52
2023-02-25T07:29:32.007Z,8.52
2023-02-25T07:32:01.488Z,8.55
2023-02-25T07:34:32.517Z,8.57
2023-02-25T07:37:01.247Z,8.60
2023-02-25T07:39:32.128Z,8.59
2023-02-25T07:42:08.743Z,8.61
2023-02-25T07:44:38.420Z,8.63
2023-02-25T07:47:14.121Z,8.66
2023-02-25T07:49:48.659Z,8.71
2023-02-25T07:52:19.770Z,8.74
2023-02-25T07:54:52.046Z,8.78
2023-02-25T07:57:21.024Z,8.84
2023-02-25T07:59:49.178Z,8.88
2023-02-25T08:02:18.987Z,8.91
2023-02-25T08:04:50.040Z,8.92
2023-02-25T08:07:21.642Z,8.95
2023-02-25T08:09:59.727Z,8.97
2023-02-25T08:12:28.577Z,9.01
2023-02-25T08:15:06.220Z,9.04
2023-02-25T08:17:35.766Z,9.05
2023-02-25T08:20:06.042Z,9.15
2023-02-25T08:22:36.886Z,9.19
2023-02-25T08:25:10.785Z,9.23
2023-02-25T08:27:40.071Z,9.30
2023-02-25T08:30:16.218Z,9.34
2023-02-25T08:33:02.975Z,9.40
2023-02-25T08:35:34.337Z,9.46
2023-02-25T08:38:14.586Z,9.52
2023-02-25T08:40:45.009Z,9.58
2023-02-25T08:43:21.115Z,9.66
2023-02-25T08:45:49.648Z,9.76
2023-02-25T08:48:17.702Z,9.82
2023-02-25T08:50:48.016Z,9.87
2023-02-25T08:53:21.207Z,9.90
2023-02-25T08:55:55.730Z,10.00
2023-02-25T08:58:30.866Z,9.90
2023-02-25T09:01:00.704Z,10.19
2023-02-25T09:03:36.608Z,10.30
2023-02-25T09:06:09.704Z,10.30
2023-02-25T09:08:40.265Z,10.51
2023-02-25T09:11:14.407Z,10.63
2023-02-25T09:13:46.704Z,10.70
2023-02-25T09:16:28.203Z,10.71
2023-02-25T09:19:18.470Z,10.78
2023-02-25T09:21:49.854Z,10.96
2023-02-25T09:24:19.634Z,11.12
2023-02-25T09:26:56.443Z,11.06
2023-02-25T09:29:29.671Z,11.34
2023-02-25T09:32:09.331Z,11.47
2023-02-25T09:34:44.387Z,11.61
2023-02-25T09:37:19.712Z,11.76
2023-02-25T09:39:55.845Z,11.78
2023-02-25T09:42:35.805Z,11.50
2023-02-25T09:45:14.424Z,11.50
2023-02-25T09:47:49.306Z,11.78
2023-02-25T09:50:28.374Z,11.92
2023-02-25T09:53:04.280Z,11.99
2023-02-25T09:55:38.186Z,12.04
2023-02-25T09:58:45.197Z,12.16
2023-02-25T10:01:23.600Z,12.34
2023-02-25T10:03:58.955Z,12.41
2023-02-25T10:09:23.628Z,12.68
2023-02-25T10:15:52.352Z,13.03
2023-02-25T10:18:57.501Z,13.54
2023-02-25T10:21:37.608Z,13.77
2023-02-25T10:24:24.341Z,13.82
2023-02-25T10:30:35.143Z,13.60
2023-02-25T10:33:23.907Z,13.49
2023-02-25T10:35:54.898Z,13.38
2023-02-25T10:38:26.514Z,13.37
2023-02-25T10:40:58.021Z,13.18
2023-02-25T10:43:37.677Z,13.14
2023-02-25T10:46:12.693Z,13.21
2023-02-25T10:49:01.024Z,13.25
2023-02-25T10:51:49.265Z,13.21
2023-02-25T10:54:33.602Z,13.12
2023-02-25T10:57:02.454Z,13.10
2023-02-25T10:59:34.007Z,13.05
2023-02-25T11:02:07.962Z,12.87
2023-02-25T11:04:40.033Z,12.89
2023-02-25T11:07:27.413Z,12.89
2023-02-25T11:10:19.520Z,12.99
2023-02-25T11:13:01.362Z,12.99
2023-02-25T11:15:56.311Z,13.20
2023-02-25T11:18:32.063Z,13.43
2023-02-25T11:21:34.778Z,13.56
2023-02-25T11:24:09.145Z,13.67
2023-02-25T11:26:39.452Z,13.75
2023-02-25T11:29:20.239Z,13.77
2023-02-25T11:31:50.605Z,13.74
2023-02-25T11:34:26.313Z,13.76
2023-02-25T11:37:16.605Z,13.85
2023-02-25T11:40:00.449Z,13.96
2023-02-25T11:42:31.492Z,14.11
2023-02-25T11:45:08.294Z,14.14
2023-02-25T11:47:50.061Z,14.20
2023-02-25T11:50:25.130Z,14.17
2023-02-25T11:53:03.350Z,14.08
2023-02-25T11:55:56.383Z,14.06
2023-02-25T11:58:37.364Z,14.06
2023-02-25T12:01:13.540Z,14.15
2023-02-25T12:04:11.170Z,14.34
2023-02-25T12:06:47.043Z,14.38
2023-02-25T12:09:47.261Z,14.47
2023-02-25T12:13:20.912Z,14.30
2023-02-25T12:16:26.617Z,13.90
2023-02-25T12:19:32.204Z,13.75
2023-02-25T12:23:01.164Z,13.53
2023-02-25T12:26:08.735Z,13.55
2023-02-25T12:29:17.767Z,13.74
2023-02-25T12:32:40.578Z,13.69
2023-02-25T12:36:07.114Z,13.90
2023-02-25T12:39:34.196Z,14.25
2023-02-25T12:42:16.203Z,14.50
2023-02-25T12:45:35.345Z,14.66
2023-02-25T12:48:41.531Z,14.62
2023-02-25T12:51:58.316Z,14.67
2023-02-25T13:02:09.021Z,15.22
2023-02-25T13:08:21.912Z,15.47
2023-02-25T13:11:16.681Z,15.45
2023-02-25T13:14:45.030Z,15.20
2023-02-25T13:17:46.532Z,15.33
2023-02-25T13:20:48.117Z,15.09
2023-02-25T13:24:04.771Z,15.16
2023-02-25T13:27:09.032Z,15.33
2023-02-25T13:30:18.726Z,15.36
2023-02-25T13:33:25.909Z,15.43
2023-02-25T13:40:27.174Z,15.37
2023-02-25T13:46:55.097Z,15.40
2023-02-25T13:49:57.984Z,15.49
2023-02-25T13:52:57.799Z,15.57
2023-02-25T13:55:55.627Z,15.54
2023-02-25T13:58:35.624Z,15.52
2023-02-25T14:01:18.859Z,15.52
2023-02-25T14:04:30.201Z,15.42
2023-02-25T14:07:30.422Z,15.31
2023-02-25T14:10:06.765Z,15.23
2023-02-25T14:12:45.325Z,15.23
2023-02-25T14:15:46.917Z,15.33
2023-02-25T14:18:38.364Z,15.41
2023-02-25T14:21:24.394Z,15.48
2023-02-25T14:24:08.972Z,15.52
2023-02-25T14:26:42.277Z,15.54
2023-02-25T14:29:22.590Z,15.54
2023-02-25T14:32:26.386Z,15.56
2023-02-25T14:35:16.711Z,15.55
2023-02-25T14:37:52.394Z,15.50
2023-02-25T14:40:31.672Z,15.50
2023-02-25T14:43:17.537Z,15.57
2023-02-25T14:45:49.029Z,15.70
2023-02-25T14:48:22.610Z,15.68
2023-02-25T14:50:52.302Z,15.72
2023-02-25T14:53:49.572Z,15.57
2023-02-25T14:56:49.246Z,15.34
2023-02-25T15:00:04.958Z,15.05
2023-02-25T15:03:05.474Z,14.81
2023-02-25T15:05:59.421Z,14.46
2023-02-25T15:08:46.099Z,14.17
2023-02-25T15:11:22.902Z,14.04
2023-02-25T15:14:41.925Z,13.89
2023-02-25T15:17:52.762Z,13.75
2023-02-25T15:20:31.820Z,13.62
2023-02-25T15:23:09.533Z,13.58
2023-02-25T15:25:53.867Z,13.61
2023-02-25T15:28:48.235Z,13.53
2023-02-25T15:31:36.299Z,13.47
2023-02-25T15:34:37.113Z,13.42
2023-02-25T15:37:33.499Z,13.38
2023-02-25T15:40:22.104Z,13.40
2023-02-25T15:42:56.335Z,13.50
2023-02-25T15:45:51.285Z,13.58
2023-02-25T15:48:44.039Z,13.59
2023-02-25T15:51:15.065Z,13.61
2023-02-25T15:53:56.217Z,13.65
2023-02-25T15:56:33.205Z,13.69
2023-02-25T15:59:02.895Z,13.71
2023-02-25T16:01:51.430Z,13.69
2023-02-25T16:04:57.604Z,13.58
2023-02-25T16:07:32.466Z,13.51
2023-02-25T16:10:08.317Z,13.42
2023-02-25T16:12:44.628Z,13.36
2023-02-25T16:15:15.594Z,13.25
2023-02-25T16:17:52.826Z,13.22
2023-02-25T16:20:24.438Z,13.17
2023-02-25T16:22:55.884Z,13.13
2023-02-25T16:25:30.165Z,13.10
2023-02-25T16:28:16.782Z,13.12
2023-02-25T16:30:50.246Z,13.16
2023-02-25T16:33:28.166Z,13.23
2023-02-25T16:36:08.193Z,13.28
2023-02-25T16:38:50.840Z,13.26
2023-02-25T16:41:36.339Z,13.25
2023-02-25T16:44:08.017Z,13.18
2023-02-25T16:46:39.382Z,13.12
2023-02-25T16:49:13.395Z,13.06
2023-02-25T16:51:52.646Z,13.03
2023-02-25T16:54:29.150Z,12.99
2023-02-25T16:57:21.180Z,12.93
2023-02-25T17:00:00.631Z,12.95
2023-02-25T17:02:31.599Z,12.90
2023-02-25T17:04:59.675Z,12.83
2023-02-25T17:07:34.771Z,12.83
2023-02-25T17:10:07.528Z,12.80
2023-02-25T17:12:41.529Z,12.72
2023-02-25T17:15:19.150Z,12.69
2023-02-25T17:17:47.954Z,12.64
2023-02-25T17:20:37.777Z,12.60
2023-02-25T17:23:08.789Z,12.53
2023-02-25T17:25:41.100Z,12.56
2023-02-25T17:28:30.191Z,12.56
2023-02-25T17:31:07.069Z,12.55
2023-02-25T17:33:38.650Z,12.52
2023-02-25T17:36:17.579Z,12.49
2023-02-25T17:38:59.263Z,12.47
2023-02-25T17:41:28.198Z,12.39
2023-02-25T17:44:07.854Z,12.35
2023-02-25T17:46:41.531Z,12.31
2023-02-25T17:49:21.375Z,12.31
2023-02-25T17:51:55.661Z,12.23
2023-02-25T17:54:25.061Z,12.19
2023-02-25T17:56:56.741Z,12.05
2023-02-25T17:59:36.799Z,12.03
2023-02-25T18:02:05.602Z,11.98
2023-02-25T18:04:35.053Z,11.88
2023-02-25T18:07:22.120Z,11.82
2023-02-25T18:09:51.056Z,11.72
2023-02-25T18:12:24.310Z,11.66
2023-02-25T18:14:55.381Z,11.59
2023-02-25T18:17:26.809Z,11.54
2023-02-25T18:19:56.553Z,11.45
2023-02-25T18:22:32.601Z,11.44
2023-02-25T18:25:02.632Z,11.38
2023-02-25T18:27:32.856Z,11.35
2023-02-25T18:30:18.270Z,11.30
2023-02-25T18:32:47.758Z,11.26
2023-02-25T18:35:16.525Z,11.23
2023-02-25T18:37:48.788Z,11.21
2023-02-25T18:40:19.014Z,11.25
2023-02-25T18:42:50.112Z,11.25
2023-02-25T18:45:23.409Z,11.34
2023-02-25T18:47:58.237Z,11.35
2023-02-25T18:50:27.334Z,11.40
2023-02-25T18:52:58.000Z,11.46
2023-02-25T18:55:35.546Z,11.49
2023-02-25T18:58:05.049Z,11.52
2023-02-25T19:00:37.142Z,11.55
2023-02-25T19:03:05.403Z,11.59
2023-02-25T19:05:34.415Z,11.60
2023-02-25T19:08:04.668Z,11.66
2023-02-25T19:10:34.707Z,11.66
2023-02-25T19:13:04.301Z,11.70
2023-02-25T19:15:38.369Z,11.73
2023-02-25T19:18:07.405Z,11.71
2023-02-25T19:20:35.442Z,11.73
2023-02-25T19:23:04.565Z,11.77
2023-02-25T19:25:35.510Z,11.82
2023-02-25T19:28:07.493Z,11.85
2023-02-25T19:30:44.518Z,11.87
2023-02-25T19:33:13.325Z,11.88
2023-02-25T19:35:43.579Z,11.79
2023-02-25T19:38:15.008Z,11.81
2023-02-25T19:40:50.037Z,11.83
2023-02-25T19:43:22.047Z,11.83
2023-02-25T19:45:54.458Z,11.86
2023-02-25T19:48:22.953Z,11.84
2023-02-25T19:50:52.026Z,11.82
2023-02-25T19:53:23.624Z,11.81
2023-02-25T19:55:56.946Z,11.73
2023-02-25T19:58:28.143Z,11.64
2023-02-25T20:01:04.430Z,11.58
2023-02-25T20:03:34.058Z,11.48
2023-02-25T20:06:07.960Z,11.40
2023-02-25T20:08:40.947Z,11.28
2023-02-25T20:11:10.308Z,11.23
2023-02-25T20:13:39.823Z,11.17
2023-02-25T20:16:12.958Z,11.11
2023-02-25T20:18:44.298Z,11.04
2023-02-25T20:21:12.876Z,10.97
2023-02-25T20:23:41.403Z,10.95
2023-02-25T20:26:15.459Z,10.90
2023-02-25T20:28:46.803Z,10.83
2023-02-25T20:31:21.250Z,10.80
2023-02-25T20:33:50.975Z,10.74
2023-02-25T20:36:21.283Z,10.69
2023-02-25T20:39:02.469Z,10.66
2023-02-25T20:41:33.501Z,10.61
2023-02-25T20:44:02.336Z,10.57
2023-02-25T20:46:32.475Z,10.56
2023-02-25T20:49:01.190Z,10.59
2023-02-25T20:51:30.030Z,10.58
2023-02-25T20:53:58.441Z,10.63
2023-02-25T20:56:30.608Z,10.65
2023-02-25T20:59:00.232Z,10.72
2023-02-25T21:01:31.709Z,10.82
2023-02-25T21:04:01.029Z,10.84
2023-02-25T21:06:29.498Z,10.88
2023-02-25T21:08:59.832Z,10.92
2023-02-25T21:11:28.284Z,10.91
2023-02-25T21:13:56.409Z,10.95
2023-02-25T21:16:29.870Z,10.91
2023-02-25T21:19:01.216Z,10.91
2023-02-25T21:21:31.696Z,10.87
2023-02-25T21:23:59.936Z,10.82
2023-02-25T21:26:28.692Z,10.80
2023-02-25T21:28:57.266Z,10.76
2023-02-25T21:31:26.406Z,10.67
2023-02-25T21:33:54.693Z,10.70
2023-02-25T21:36:24.532Z,10.71
2023-02-25T21:38:54.235Z,10.69
2023-02-25T21:41:26.379Z,10.68
2023-02-25T21:43:55.750Z,10.66
2023-02-25T21:46:26.173Z,10.65
2023-02-25T21:48:56.268Z,10.63
2023-02-25T21:51:30.812Z,10.62
2023-02-25T21:54:03.143Z,10.59
2023-02-25T21:56:34.258Z,10.60
2023-02-25T21:59:04.118Z,10.51
2023-02-25T22:01:33.267Z,10.59
2023-02-25T22:04:01.592Z,10.55
2023-02-25T22:06:31.038Z,10.54
2023-02-25T22:08:59.277Z,10.50
2023-02-25T22:11:29.490Z,10.43
2023-02-25T22:14:00.159Z,10.44
2023-02-25T22:16:28.832Z,10.43
2023-02-25T22:18:58.418Z,10.41
2023-02-25T22:21:27.196Z,10.38
2023-02-25T22:23:59.367Z,10.37
2023-02-25T22:26:31.799Z,10.39
2023-02-25T22:29:02.567Z,10.34
2023-02-25T22:31:34.223Z,10.43
2023-02-25T22:34:02.314Z,10.42
2023-02-25T22:36:32.306Z,10.42
2023-02-25T22:39:01.674Z,10.39
2023-02-25T22:41:30.924Z,10.38
2023-02-25T22:44:00.533Z,10.36
2023-02-25T22:46:29.660Z,10.32
2023-02-25T22:48:57.767Z,10.30
2023-02-25T22:51:31.850Z,10.23
2023-02-25T22:54:04.915Z,10.26
2023-02-25T22:56:36.642Z,10.22
2023-02-25T22:59:08.306Z,10.20
2023-02-25T23:01:38.083Z,10.16
2023-02-25T23:04:08.086Z,10.12
2023-02-25T23:06:44.881Z,10.13
2023-02-25T23:09:15.173Z,10.10
2023-02-25T23:11:46.057Z,10.07
2023-02-25T23:14:19.038Z,10.05
2023-02-25T23:16:49.462Z,10.01
2023-02-25T23:19:21.676Z,9.95
2023-02-25T23:21:50.485Z,9.92
2023-02-25T23:24:22.129Z,9.88
2023-02-25T23:26:53.661Z,9.85
2023-02-25T23:29:23.366Z,9.82
2023-02-25T23:31:51.959Z,9.81
2023-02-25T23:34:22.159Z,9.78
2023-02-25T23:36:58.265Z,9.79
2023-02-25T23:39:27.845Z,9.78
2023-02-25T23:41:59.542Z,9.78
2023-02-25T23:44:29.536Z,9.74
2023-02-25T23:47:23.293Z,9.76
2023-02-25T23:49:55.779Z,9.68
2023-02-25T23:52:24.321Z,9.62
2023-02-25T23:54:56.126Z,9.57
2023-02-25T23:57:26.363Z,9.52
2023-02-25T23:59:55.904Z,9.48
